Bigelow, MN

11:31 PM CST on December 15, 2019 (GMT -0600)
Bigelow | | Change Station

Elev 1660 ft 43.55 °N, 95.72 °W | Updated 15 minutes ago

Partly Cloudy
Partly Cloudy
8.8 °F
Feels Like 1 °F
N
4
Wind Variable Wind from SW
Gusts 7.0 mph

Today
High -- | Low -- °F
--% Chance of Precip.
Yesterday
High -- | Low -- °F
Precip. -- in
Pressure 30.16 in
Visibility 10.0 miles
Clouds Overcast 4100 ft
Windchill 1 °F
Dew Point 3 °F
Humidity 78%
Rainfall 0.00 in
Snow Depth Not available.
7:48 AM 4:46 PM
Waning Gibbous, 81% visible
METAR KOTG 160456Z AUTO 22010KT 10SM OVC041 M11/M12 A3004 RMK AO2 SLP211 T11111122 FZRANO
Pressure 30.16 in
Visibility 10.0 miles
Clouds Overcast 4100 ft
Windchill 1 °F
Dew Point 3 °F
Humidity 78%
Rainfall 0.00 in
Snow Depth Not available.
7:48 AM 4:46 PM
Waning Gibbous, 81% visible
METAR KOTG 160456Z AUTO 22010KT 10SM OVC041 M11/M12 A3004 RMK AO2 SLP211 T11111122 FZRANO

Get Severe Weather Alerts

Thanks for signing up!

Be on the lookout for a verification email in your inbox.

You'll start receiving the daily forecast at 6 AM.

×

10-Day Weather Forecast

Almanac

Astronomy

Dec. 15, 2019 Rise Set
Actual Time
Civil Twilight
Nautical Twilight
Astronomical Twilight
Moon
Length of Visible Light
Length of Day
Tomorrow will be .
, % of the Moon is Illuminated

Today's Extremes

State Highs State Lows

Community

WunderPhotos

Category 6

Welcome to Category 6. This is the collective home for Weather Underground's featured writeups by Dr. Jeff Masters (right), Bob Henson (left), Chris Burt, and other regular contributors.

Nearby

Air Quality

  Air Quality AQ Index Pollutant
Not available.

Snow Depth

Station Depth Elevation

Earthquake Activity

City Distance Mag. Time & Date
Minimum magnitude displayed is 2.5.

Coastal Water Temperatures

Place Temperature

Stations

Nearby Weather Stations

Station Location Temp. Windchill Dew Point Humidity Wind Precip. Elev Updated Type
                   

Watches & Warnings

There are currently no watches in effect.